Time,TemperatureF,DewpointF,PressureIn,WindDirection,WindDirectionDegrees,WindSpeedMPH,WindSpeedGustMPH,Humidity,HourlyPrecipIn,Conditions,Clouds,dailyrainin,SoftwareType,DateUTC
2013-03-18 00:03:00,33.0,-99.9,-100.00,ENE,78,12.0,16.0,-999,0.00,,,0.00,,2013-03-18 05:03:00,
2013-03-18 00:13:00,33.0,-99.9,-100.00,ENE,78,12.0,16.0,-999,0.00,,,0.00,,2013-03-18 05:13:00,
2013-03-18 00:23:00,33.0,-99.9,-100.00,ENE,78,12.0,16.0,-999,0.00,,,0.00,,2013-03-18 05:23:00,
2013-03-18 00:33:00,33.0,-99.9,-100.00,East,85,11.0,18.0,-999,0.00,,,0.00,,2013-03-18 05:33:00,
2013-03-18 00:43:00,33.0,-99.9,-100.00,East,85,11.0,18.0,-999,0.00,,,0.00,,2013-03-18 05:43:00,
2013-03-18 00:52:00,33.0,-99.9,-100.00,East,85,11.0,18.0,-999,0.00,,,0.00,,2013-03-18 05:52:00,
2013-03-18 01:02:00,33.0,-99.9,-100.00,East,85,9.0,13.0,-999,0.00,,,0.00,,2013-03-18 06:02:00,
2013-03-18 01:12:00,33.0,-99.9,-100.00,East,85,9.0,13.0,-999,0.00,,,0.00,,2013-03-18 06:12:00,
2013-03-18 01:22:00,33.0,-99.9,-100.00,East,85,9.0,13.0,-999,0.00,,,0.00,,2013-03-18 06:22:00,
2013-03-18 01:32:00,33.0,-99.9,-100.00,East,81,13.0,17.0,-999,0.00,,,0.00,,2013-03-18 06:32:00,
2013-03-18 01:42:00,33.0,-99.9,-100.00,East,81,13.0,17.0,-999,0.00,,,0.00,,2013-03-18 06:42:00,
2013-03-18 01:53:00,33.0,-99.9,-100.00,East,81,13.0,17.0,-999,0.00,,,0.00,,2013-03-18 06:53:00,
2013-03-18 02:03:00,33.0,-99.9,-100.00,East,87,11.0,15.0,-999,0.00,,,0.00,,2013-03-18 07:03:00,
2013-03-18 02:13:00,33.0,-99.9,-100.00,East,87,11.0,15.0,-999,0.00,,,0.00,,2013-03-18 07:13:00,
2013-03-18 02:23:00,33.0,-99.9,-100.00,East,87,11.0,15.0,-999,0.00,,,0.00,,2013-03-18 07:23:00,
2013-03-18 02:33:00,33.0,-99.9,-100.00,East,85,10.0,12.0,-999,0.00,,,0.00,,2013-03-18 07:33:00,
2013-03-18 02:43:00,33.0,-99.9,-100.00,East,85,10.0,12.0,-999,0.00,,,0.00,,2013-03-18 07:43:00,
2013-03-18 02:53:00,33.0,-99.9,-100.00,East,85,10.0,12.0,-999,0.00,,,0.00,,2013-03-18 07:53:00,
2013-03-18 03:03:00,33.0,-99.9,-100.00,East,86,10.0,13.0,-999,0.00,,,0.00,,2013-03-18 08:03:00,
2013-03-18 03:12:00,33.0,-99.9,-100.00,East,86,10.0,13.0,-999,0.00,,,0.00,,2013-03-18 08:12:00,
2013-03-18 03:22:00,33.0,-99.9,-100.00,East,86,10.0,13.0,-999,0.00,,,0.00,,2013-03-18 08:22:00,
2013-03-18 03:30:00,33.0,-99.9,-100.00,ENE,77,7.0,10.0,-999,0.00,,,0.00,,2013-03-18 08:30:00,
2013-03-18 03:32:00,33.0,-99.9,-100.00,ENE,75,7.0,12.0,-999,0.00,,,0.00,,2013-03-18 08:32:00,
2013-03-18 03:43:00,33.0,-99.9,-100.00,ENE,75,7.0,12.0,-999,0.00,,,0.00,,2013-03-18 08:43:00,
2013-03-18 03:53:00,33.0,-99.9,-100.00,ENE,75,7.0,12.0,-999,0.00,,,0.00,,2013-03-18 08:53:00,
2013-03-18 04:02:00,33.0,-99.9,-100.00,ENE,77,7.0,10.0,-999,0.00,,,0.00,,2013-03-18 09:02:00,
2013-03-18 04:13:00,33.0,-99.9,-100.00,ENE,77,7.0,10.0,-999,0.00,,,0.00,,2013-03-18 09:13:00,
2013-03-18 04:23:00,33.0,-99.9,-100.00,ENE,77,7.0,10.0,-999,0.00,,,0.00,,2013-03-18 09:23:00,
2013-03-18 05:04:00,33.0,-99.9,-100.00,East,85,8.0,11.0,-999,0.00,,,0.00,,2013-03-18 10:04:00,
2013-03-18 05:13:00,33.0,-99.9,-100.00,East,85,8.0,11.0,-999,0.00,,,0.00,,2013-03-18 10:13:00,
2013-03-18 05:23:00,33.0,-99.9,-100.00,East,85,8.0,11.0,-999,0.00,,,0.00,,2013-03-18 10:23:00,
2013-03-18 05:33:00,32.0,-99.9,-100.00,East,81,10.0,14.0,-999,0.00,,,0.00,,2013-03-18 10:33:00,
2013-03-18 05:42:00,32.0,-99.9,-100.00,East,81,10.0,14.0,-999,0.00,,,0.00,,2013-03-18 10:42:00,
2013-03-18 05:53:00,32.0,-99.9,-100.00,East,81,10.0,14.0,-999,0.00,,,0.00,,2013-03-18 10:53:00,
2013-03-18 06:03:00,32.0,-99.9,-100.00,East,81,7.0,9.0,-999,0.00,,,0.00,,2013-03-18 11:03:00,
2013-03-18 06:13:00,32.0,-99.9,-100.00,East,81,7.0,9.0,-999,0.00,,,0.00,,2013-03-18 11:13:00,
2013-03-18 06:22:00,32.0,-99.9,-100.00,East,81,7.0,9.0,-999,0.00,,,0.00,,2013-03-18 11:22:00,
2013-03-18 06:32:00,32.0,-99.9,-100.00,East,86,6.0,8.0,-999,0.00,,,0.00,,2013-03-18 11:32:00,
2013-03-18 06:43:00,32.0,-99.9,-100.00,East,86,6.0,8.0,-999,0.00,,,0.00,,2013-03-18 11:43:00,
2013-03-18 06:53:00,32.0,-99.9,-100.00,East,86,6.0,8.0,-999,0.00,,,0.00,,2013-03-18 11:53:00,
2013-03-18 07:03:00,32.0,-99.9,-100.00,ENE,76,4.0,7.0,-999,0.00,,,0.00,,2013-03-18 12:03:00,
2013-03-18 07:13:00,32.0,-99.9,-100.00,ENE,76,4.0,7.0,-999,0.00,,,0.00,,2013-03-18 12:13:00,
2013-03-18 07:22:00,32.0,-99.9,-100.00,ENE,76,4.0,7.0,-999,0.00,,,0.00,,2013-03-18 12:22:00,
2013-03-18 07:30:00,32.0,-99.9,-100.00,East,94,4.0,6.0,-999,0.00,,,0.00,,2013-03-18 12:30:00,
2013-03-18 07:33:00,32.0,-99.9,-100.00,ENE,77,4.0,5.0,-999,0.00,,,0.00,,2013-03-18 12:33:00,
2013-03-18 07:43:00,32.0,-99.9,-100.00,ENE,77,4.0,5.0,-999,0.00,,,0.00,,2013-03-18 12:43:00,
2013-03-18 07:52:00,32.0,-99.9,-100.00,ENE,77,4.0,5.0,-999,0.00,,,0.00,,2013-03-18 12:52:00,
2013-03-18 08:03:00,32.0,-99.9,-100.00,East,94,4.0,6.0,-999,0.00,,,0.00,,2013-03-18 13:03:00,
2013-03-18 08:12:00,32.0,-99.9,-100.00,East,94,4.0,6.0,-999,0.00,,,0.00,,2013-03-18 13:12:00,
2013-03-18 08:23:00,32.0,-99.9,-100.00,East,94,4.0,6.0,-999,0.00,,,0.00,,2013-03-18 13:23:00,
2013-03-18 08:30:00,32.0,-99.9,-100.00,SE,144,0.0,0.0,-999,0.00,,,0.00,,2013-03-18 13:30:00,
2013-03-18 09:03:00,32.0,-99.9,-100.00,SE,144,0.0,0.0,-999,0.00,,,0.00,,2013-03-18 14:03:00,
2013-03-18 09:13:00,32.0,-99.9,-100.00,SE,144,0.0,0.0,-999,0.00,,,0.00,,2013-03-18 14:13:00,
2013-03-18 09:22:00,32.0,-99.9,-100.00,SE,144,0.0,0.0,-999,0.00,,,0.00,,2013-03-18 14:22:00,
2013-03-18 12:30:00,34.0,-99.9,-100.00,SW,216,4.0,6.0,-999,0.00,,,0.00,,2013-03-18 17:30:00,
2013-03-18 12:43:00,33.0,-99.9,-100.00,SSW,202,3.0,4.0,-999,0.00,,,0.00,,2013-03-18 17:43:00,
2013-03-18 12:52:00,33.0,-99.9,-100.00,SSW,202,3.0,4.0,-999,0.00,,,0.00,,2013-03-18 17:52:00,
2013-03-18 13:03:00,34.0,-99.9,-100.00,SW,216,4.0,6.0,-999,0.00,,,0.00,,2013-03-18 18:03:00,
2013-03-18 13:13:00,34.0,-99.9,-100.00,SW,216,4.0,6.0,-999,0.00,,,0.00,,2013-03-18 18:13:00,
2013-03-18 13:22:00,34.0,-99.9,-100.00,SW,216,4.0,6.0,-999,0.00,,,0.00,,2013-03-18 18:22:00,
2013-03-18 13:30:00,36.0,-99.9,-100.00,WSW,239,10.0,14.0,-999,0.00,,,0.00,,2013-03-18 18:30:00,
2013-03-18 14:03:00,36.0,-99.9,-100.00,WSW,239,10.0,14.0,-999,0.00,,,0.00,,2013-03-18 19:03:00,
2013-03-18 14:12:00,36.0,-99.9,-100.00,WSW,239,10.0,14.0,-999,0.00,,,0.00,,2013-03-18 19:12:00,
2013-03-18 14:22:00,36.0,-99.9,-100.00,WSW,239,10.0,14.0,-999,0.00,,,0.00,,2013-03-18 19:22:00,
2013-03-18 14:30:00,36.0,-99.9,-100.00,WSW,251,9.0,15.0,-999,0.00,,,0.00,,2013-03-18 19:30:00,
2013-03-18 14:42:00,36.0,-99.9,-100.00,WSW,256,9.0,19.0,-999,0.00,,,0.00,,2013-03-18 19:42:00,
2013-03-18 14:52:00,36.0,-99.9,-100.00,WSW,256,9.0,19.0,-999,0.00,,,0.00,,2013-03-18 19:52:00,
2013-03-18 15:03:00,36.0,-99.9,-100.00,WSW,251,9.0,15.0,-999,0.00,,,0.00,,2013-03-18 20:03:00,
2013-03-18 15:12:00,36.0,-99.9,-100.00,WSW,251,9.0,15.0,-999,0.00,,,0.00,,2013-03-18 20:12:00,
2013-03-18 15:23:00,36.0,-99.9,-100.00,WSW,251,9.0,15.0,-999,0.00,,,0.00,,2013-03-18 20:23:00,
2013-03-18 16:02:00,33.0,-99.9,-100.00,WSW,257,14.0,22.0,-999,0.00,,,0.00,,2013-03-18 21:02:00,
2013-03-18 16:12:00,33.0,-99.9,-100.00,WSW,257,14.0,22.0,-999,0.00,,,0.00,,2013-03-18 21:12:00,
2013-03-18 16:23:00,33.0,-99.9,-100.00,WSW,257,14.0,22.0,-999,0.00,,,0.00,,2013-03-18 21:23:00,
2013-03-18 16:30:00,31.0,-99.9,-100.00,West,262,10.0,23.0,-999,0.00,,,0.00,,2013-03-18 21:30:00,
2013-03-18 16:33:00,31.0,-99.9,-100.00,WSW,257,11.0,22.0,-999,0.00,,,0.00,,2013-03-18 21:33:00,
2013-03-18 16:43:00,31.0,-99.9,-100.00,WSW,257,11.0,22.0,-999,0.00,,,0.00,,2013-03-18 21:43:00,
2013-03-18 16:53:00,31.0,-99.9,-100.00,WSW,257,11.0,22.0,-999,0.00,,,0.00,,2013-03-18 21:53:00,
2013-03-18 17:04:00,31.0,-99.9,-100.00,West,262,10.0,23.0,-999,0.00,,,0.00,,2013-03-18 22:04:00,
2013-03-18 17:13:00,31.0,-99.9,-100.00,West,262,10.0,23.0,-999,0.00,,,0.00,,2013-03-18 22:13:00,
2013-03-18 17:23:00,31.0,-99.9,-100.00,West,262,10.0,23.0,-999,0.00,,,0.00,,2013-03-18 22:23:00,
2013-03-18 18:00:00,28.0,-99.9,-100.00,West,278,10.0,17.0,-999,0.00,,,0.00,,2013-03-18 23:00:00,
2013-03-18 18:03:00,29.0,-99.9,-100.00,West,268,12.0,30.0,-999,0.00,,,0.00,,2013-03-18 23:03:00,
2013-03-18 18:13:00,29.0,-99.9,-100.00,West,268,12.0,30.0,-999,0.00,,,0.00,,2013-03-18 23:13:00,
2013-03-18 18:23:00,29.0,-99.9,-100.00,West,268,12.0,30.0,-999,0.00,,,0.00,,2013-03-18 23:23:00,
2013-03-18 18:33:00,28.0,-99.9,-100.00,West,278,10.0,17.0,-999,0.00,,,0.00,,2013-03-18 23:33:00,
2013-03-18 18:43:00,28.0,-99.9,-100.00,West,278,10.0,17.0,-999,0.00,,,0.00,,2013-03-18 23:43:00,
2013-03-18 18:53:00,28.0,-99.9,-100.00,West,278,10.0,17.0,-999,0.00,,,0.00,,2013-03-18 23:53:00,
2013-03-18 20:02:00,26.0,-99.9,-100.00,West,259,13.0,24.0,-999,-99.99,,,0.00,,2013-03-19 01:02:00,
2013-03-18 20:12:00,26.0,-99.9,-100.00,West,259,13.0,24.0,-999,-99.99,,,0.00,,2013-03-19 01:12:00,
2013-03-18 20:23:00,26.0,-99.9,-100.00,West,259,13.0,24.0,-999,-99.99,,,0.00,,2013-03-19 01:23:00,
2013-03-18 20:30:00,26.0,-99.9,-100.00,West,267,13.0,31.0,-999,0.00,,,0.00,,2013-03-19 01:30:00,
2013-03-18 20:33:00,26.0,-99.9,-100.00,West,264,12.0,18.0,-999,0.00,,,0.00,,2013-03-19 01:33:00,
2013-03-18 20:43:00,26.0,-99.9,-100.00,West,264,12.0,18.0,-999,0.00,,,0.00,,2013-03-19 01:43:00,
2013-03-18 20:53:00,26.0,-99.9,-100.00,West,264,12.0,18.0,-999,0.00,,,0.00,,2013-03-19 01:53:00,
2013-03-18 21:03:00,26.0,-99.9,-100.00,West,267,13.0,31.0,-999,0.00,,,0.00,,2013-03-19 02:03:00,
2013-03-18 21:13:00,26.0,-99.9,-100.00,West,267,13.0,31.0,-999,0.00,,,0.00,,2013-03-19 02:13:00,
2013-03-18 21:23:00,26.0,-99.9,-100.00,West,267,13.0,31.0,-999,0.00,,,0.00,,2013-03-19 02:23:00,
2013-03-18 21:43:00,25.0,-99.9,-100.00,West,262,15.0,21.0,-999,0.00,,,0.00,,2013-03-19 02:43:00,
2013-03-18 21:53:00,25.0,-99.9,-100.00,West,262,15.0,21.0,-999,0.00,,,0.00,,2013-03-19 02:53:00,
2013-03-18 23:03:00,25.0,-99.9,-100.00,West,265,9.0,13.0,-999,0.00,,,0.00,,2013-03-19 04:03:00,
2013-03-18 23:13:00,25.0,-99.9,-100.00,West,265,9.0,13.0,-999,0.00,,,0.00,,2013-03-19 04:13:00,
2013-03-18 23:23:00,25.0,-99.9,-100.00,West,265,9.0,13.0,-999,0.00,,,0.00,,2013-03-19 04:23:00,
2013-03-18 23:34:00,25.0,-99.9,-100.00,West,266,8.0,16.0,-999,0.00,,,0.00,,2013-03-19 04:34:00,
2013-03-18 23:43:00,25.0,-99.9,-100.00,West,266,8.0,16.0,-999,0.00,,,0.00,,2013-03-19 04:43:00,
2013-03-18 23:53:00,25.0,-99.9,-100.00,West,266,8.0,16.0,-999,0.00,,,0.00,,2013-03-19 04:53:00,